sensor_id;sensor_type;location;lat;lon;timestamp;temperature;humidity
52381;DHT22;38310;52.796;6.942;2023-03-17T00:01:38;6.70;99.90
52381;DHT22;38310;52.796;6.942;2023-03-17T00:04:04;6.70;99.90
52381;DHT22;38310;52.796;6.942;2023-03-17T00:06:31;6.60;99.90
52381;DHT22;38310;52.796;6.942;2023-03-17T00:08:58;7.90;99.90
52381;DHT22;38310;52.796;6.942;2023-03-17T00:11:25;6.70;99.90
52381;DHT22;38310;52.796;6.942;2023-03-17T00:13:51;6.60;99.90
52381;DHT22;38310;52.796;6.942;2023-03-17T00:16:19;6.60;99.90
52381;DHT22;38310;52.796;6.942;2023-03-17T00:18:47;6.60;99.90
52381;DHT22;38310;52.796;6.942;2023-03-17T00:21:16;6.60;99.90
52381;DHT22;38310;52.796;6.942;2023-03-17T00:23:48;6.60;99.90
52381;DHT22;38310;52.796;6.942;2023-03-17T00:26:14;6.80;99.90
52381;DHT22;38310;52.796;6.942;2023-03-17T00:28:40;6.90;99.90
52381;DHT22;38310;52.796;6.942;2023-03-17T00:31:16;6.70;99.90
52381;DHT22;38310;52.796;6.942;2023-03-17T00:33:43;6.60;99.90
52381;DHT22;38310;52.796;6.942;2023-03-17T00:36:16;6.80;99.90
52381;DHT22;38310;52.796;6.942;2023-03-17T00:38:43;6.70;99.90
52381;DHT22;38310;52.796;6.942;2023-03-17T00:41:10;6.60;99.90
52381;DHT22;38310;52.796;6.942;2023-03-17T00:43:37;6.50;99.90
52381;DHT22;38310;52.796;6.942;2023-03-17T00:46:29;6.50;99.90
52381;DHT22;38310;52.796;6.942;2023-03-17T00:49:01;6.50;99.90
52381;DHT22;38310;52.796;6.942;2023-03-17T00:51:27;6.50;99.90
52381;DHT22;38310;52.796;6.942;2023-03-17T00:53:54;6.50;99.90
52381;DHT22;38310;52.796;6.942;2023-03-17T00:56:20;6.50;99.90
52381;DHT22;38310;52.796;6.942;2023-03-17T00:58:47;6.50;99.90
52381;DHT22;38310;52.796;6.942;2023-03-17T01:01:13;6.50;99.90
52381;DHT22;38310;52.796;6.942;2023-03-17T01:03:39;6.50;99.90
52381;DHT22;38310;52.796;6.942;2023-03-17T01:06:08;6.50;99.90
52381;DHT22;38310;52.796;6.942;2023-03-17T01:08:35;7.00;99.90
52381;DHT22;38310;52.796;6.942;2023-03-17T01:11:01;6.50;99.90
52381;DHT22;38310;52.796;6.942;2023-03-17T01:13:27;6.50;99.90
52381;DHT22;38310;52.796;6.942;2023-03-17T01:15:54;6.40;99.90
52381;DHT22;38310;52.796;6.942;2023-03-17T01:18:21;7.90;99.90
52381;DHT22;38310;52.796;6.942;2023-03-17T01:20:47;6.30;99.90
52381;DHT22;38310;52.796;6.942;2023-03-17T01:23:13;6.30;99.90
52381;DHT22;38310;52.796;6.942;2023-03-17T01:25:40;6.30;99.90
52381;DHT22;38310;52.796;6.942;2023-03-17T01:28:09;6.20;99.90
52381;DHT22;38310;52.796;6.942;2023-03-17T01:30:38;6.20;99.90
52381;DHT22;38310;52.796;6.942;2023-03-17T01:33:06;6.20;99.90
52381;DHT22;38310;52.796;6.942;2023-03-17T01:35:33;6.20;99.90
52381;DHT22;38310;52.796;6.942;2023-03-17T01:38:01;6.20;99.90
52381;DHT22;38310;52.796;6.942;2023-03-17T01:40:30;6.20;99.90
52381;DHT22;38310;52.796;6.942;2023-03-17T01:43:03;6.50;99.90
52381;DHT22;38310;52.796;6.942;2023-03-17T01:48:37;6.20;99.90
52381;DHT22;38310;52.796;6.942;2023-03-17T01:51:06;6.20;99.90
52381;DHT22;38310;52.796;6.942;2023-03-17T01:53:35;6.20;99.90
52381;DHT22;38310;52.796;6.942;2023-03-17T01:56:02;6.20;99.90
52381;DHT22;38310;52.796;6.942;2023-03-17T01:58:29;6.20;99.90
52381;DHT22;38310;52.796;6.942;2023-03-17T02:00:55;6.20;99.90
52381;DHT22;38310;52.796;6.942;2023-03-17T02:03:21;6.20;99.90
52381;DHT22;38310;52.796;6.942;2023-03-17T02:05:50;6.20;99.90
52381;DHT22;38310;52.796;6.942;2023-03-17T02:08:17;6.20;99.90
52381;DHT22;38310;52.796;6.942;2023-03-17T02:10:44;6.60;99.90
52381;DHT22;38310;52.796;6.942;2023-03-17T02:13:12;4.60;99.90
52381;DHT22;38310;52.796;6.942;2023-03-17T02:15:44;6.20;99.90
52381;DHT22;38310;52.796;6.942;2023-03-17T02:18:11;6.10;99.90
52381;DHT22;38310;52.796;6.942;2023-03-17T02:23:04;6.80;99.90
52381;DHT22;38310;52.796;6.942;2023-03-17T02:25:32;6.20;99.90
52381;DHT22;38310;52.796;6.942;2023-03-17T02:28:04;6.20;99.90
52381;DHT22;38310;52.796;6.942;2023-03-17T02:30:32;6.20;99.90
52381;DHT22;38310;52.796;6.942;2023-03-17T02:32:59;6.10;99.90
52381;DHT22;38310;52.796;6.942;2023-03-17T02:35:24;6.10;99.90
52381;DHT22;38310;52.796;6.942;2023-03-17T02:37:51;6.10;99.90
52381;DHT22;38310;52.796;6.942;2023-03-17T02:40:17;6.10;99.90
52381;DHT22;38310;52.796;6.942;2023-03-17T02:42:43;6.30;99.90
52381;DHT22;38310;52.796;6.942;2023-03-17T02:45:10;6.10;99.90
52381;DHT22;38310;52.796;6.942;2023-03-17T02:47:37;6.10;99.90
52381;DHT22;38310;52.796;6.942;2023-03-17T02:50:04;6.10;99.90
52381;DHT22;38310;52.796;6.942;2023-03-17T02:52:30;6.10;99.90
52381;DHT22;38310;52.796;6.942;2023-03-17T02:54:56;6.10;99.90
52381;DHT22;38310;52.796;6.942;2023-03-17T02:57:22;6.00;99.90
52381;DHT22;38310;52.796;6.942;2023-03-17T02:59:49;6.00;99.90
52381;DHT22;38310;52.796;6.942;2023-03-17T03:02:15;6.10;99.90
52381;DHT22;38310;52.796;6.942;2023-03-17T03:04:41;6.30;99.90
52381;DHT22;38310;52.796;6.942;2023-03-17T03:07:08;6.10;99.90
52381;DHT22;38310;52.796;6.942;2023-03-17T03:09:35;5.90;99.90
52381;DHT22;38310;52.796;6.942;2023-03-17T03:12:01;5.90;99.90
52381;DHT22;38310;52.796;6.942;2023-03-17T03:14:26;5.80;99.90
52381;DHT22;38310;52.796;6.942;2023-03-17T03:16:52;6.30;99.90
52381;DHT22;38310;52.796;6.942;2023-03-17T03:19:19;6.20;99.90
52381;DHT22;38310;52.796;6.942;2023-03-17T03:21:44;6.00;99.90
52381;DHT22;38310;52.796;6.942;2023-03-17T03:24:10;5.80;99.90
52381;DHT22;38310;52.796;6.942;2023-03-17T03:26:36;5.80;99.90
52381;DHT22;38310;52.796;6.942;2023-03-17T03:29:03;5.80;99.90
52381;DHT22;38310;52.796;6.942;2023-03-17T03:31:29;5.80;99.90
52381;DHT22;38310;52.796;6.942;2023-03-17T03:33:54;5.80;99.90
52381;DHT22;38310;52.796;6.942;2023-03-17T03:36:20;5.70;99.90
52381;DHT22;38310;52.796;6.942;2023-03-17T03:38:46;5.70;99.90
52381;DHT22;38310;52.796;6.942;2023-03-17T03:41:12;5.70;99.90
52381;DHT22;38310;52.796;6.942;2023-03-17T03:43:38;5.70;99.90
52381;DHT22;38310;52.796;6.942;2023-03-17T03:46:05;5.70;99.90
52381;DHT22;38310;52.796;6.942;2023-03-17T03:48:31;5.70;99.90
52381;DHT22;38310;52.796;6.942;2023-03-17T03:50:59;5.70;99.90
52381;DHT22;38310;52.796;6.942;2023-03-17T03:53:25;5.70;99.90
52381;DHT22;38310;52.796;6.942;2023-03-17T03:55:51;5.80;99.90
52381;DHT22;38310;52.796;6.942;2023-03-17T03:58:17;5.70;99.90
52381;DHT22;38310;52.796;6.942;2023-03-17T04:00:43;5.70;99.90
52381;DHT22;38310;52.796;6.942;2023-03-17T04:03:09;5.80;99.90
52381;DHT22;38310;52.796;6.942;2023-03-17T04:05:35;5.80;99.90
52381;DHT22;38310;52.796;6.942;2023-03-17T04:08:00;5.70;99.90
52381;DHT22;38310;52.796;6.942;2023-03-17T04:10:26;5.80;99.90
52381;DHT22;38310;52.796;6.942;2023-03-17T04:12:52;5.70;99.90
52381;DHT22;38310;52.796;6.942;2023-03-17T04:15:18;5.70;99.90
52381;DHT22;38310;52.796;6.942;2023-03-17T04:17:44;5.70;99.90
52381;DHT22;38310;52.796;6.942;2023-03-17T04:20:12;6.20;99.90
52381;DHT22;38310;52.796;6.942;2023-03-17T04:22:39;5.70;99.90
52381;DHT22;38310;52.796;6.942;2023-03-17T04:25:06;5.70;99.90
52381;DHT22;38310;52.796;6.942;2023-03-17T04:27:32;5.70;99.90
52381;DHT22;38310;52.796;6.942;2023-03-17T04:29:58;5.70;99.90
52381;DHT22;38310;52.796;6.942;2023-03-17T04:32:24;5.70;99.90
52381;DHT22;38310;52.796;6.942;2023-03-17T04:34:50;5.70;99.90
52381;DHT22;38310;52.796;6.942;2023-03-17T04:37:15;5.80;99.90
52381;DHT22;38310;52.796;6.942;2023-03-17T04:39:41;5.70;99.90
52381;DHT22;38310;52.796;6.942;2023-03-17T04:42:07;5.70;99.90
52381;DHT22;38310;52.796;6.942;2023-03-17T04:44:33;5.70;99.90
52381;DHT22;38310;52.796;6.942;2023-03-17T04:46:59;5.70;99.90
52381;DHT22;38310;52.796;6.942;2023-03-17T04:49:25;5.70;99.90
52381;DHT22;38310;52.796;6.942;2023-03-17T04:51:51;5.70;99.90
52381;DHT22;38310;52.796;6.942;2023-03-17T04:54:16;5.70;99.90
52381;DHT22;38310;52.796;6.942;2023-03-17T04:56:42;6.20;99.90
52381;DHT22;38310;52.796;6.942;2023-03-17T04:59:08;5.70;99.90
52381;DHT22;38310;52.796;6.942;2023-03-17T05:01:34;5.90;99.90
52381;DHT22;38310;52.796;6.942;2023-03-17T05:04:02;5.70;99.90
52381;DHT22;38310;52.796;6.942;2023-03-17T05:06:29;5.70;99.90
52381;DHT22;38310;52.796;6.942;2023-03-17T05:08:54;5.70;99.90
52381;DHT22;38310;52.796;6.942;2023-03-17T05:11:20;5.70;99.90
52381;DHT22;38310;52.796;6.942;2023-03-17T05:13:46;4.50;99.90
52381;DHT22;38310;52.796;6.942;2023-03-17T05:16:12;5.60;99.90
52381;DHT22;38310;52.796;6.942;2023-03-17T05:18:38;5.70;99.90
52381;DHT22;38310;52.796;6.942;2023-03-17T05:21:05;5.70;99.90
52381;DHT22;38310;52.796;6.942;2023-03-17T05:23:32;5.60;99.90
52381;DHT22;38310;52.796;6.942;2023-03-17T05:25:58;5.60;99.90
52381;DHT22;38310;52.796;6.942;2023-03-17T05:28:24;5.60;99.90
52381;DHT22;38310;52.796;6.942;2023-03-17T05:30:51;5.60;99.90
52381;DHT22;38310;52.796;6.942;2023-03-17T05:33:17;5.90;99.90
52381;DHT22;38310;52.796;6.942;2023-03-17T05:35:43;5.60;99.90
52381;DHT22;38310;52.796;6.942;2023-03-17T05:38:11;5.60;99.90
52381;DHT22;38310;52.796;6.942;2023-03-17T05:40:37;5.60;99.90
52381;DHT22;38310;52.796;6.942;2023-03-17T05:43:04;5.70;99.90
52381;DHT22;38310;52.796;6.942;2023-03-17T05:45:30;6.10;99.90
52381;DHT22;38310;52.796;6.942;2023-03-17T05:47:58;5.80;99.90
52381;DHT22;38310;52.796;6.942;2023-03-17T05:50:24;5.70;99.90
52381;DHT22;38310;52.796;6.942;2023-03-17T05:52:50;5.70;99.90
52381;DHT22;38310;52.796;6.942;2023-03-17T05:55:17;5.70;99.90
52381;DHT22;38310;52.796;6.942;2023-03-17T05:57:43;5.80;99.90
52381;DHT22;38310;52.796;6.942;2023-03-17T06:00:11;5.70;99.90
52381;DHT22;38310;52.796;6.942;2023-03-17T06:02:37;5.70;99.90
52381;DHT22;38310;52.796;6.942;2023-03-17T06:05:04;5.70;99.90
52381;DHT22;38310;52.796;6.942;2023-03-17T06:07:30;5.80;99.90
52381;DHT22;38310;52.796;6.942;2023-03-17T06:09:57;5.70;99.90
52381;DHT22;38310;52.796;6.942;2023-03-17T06:12:22;5.80;99.90
52381;DHT22;38310;52.796;6.942;2023-03-17T06:14:48;5.80;99.90
52381;DHT22;38310;52.796;6.942;2023-03-17T06:17:14;5.80;99.90
52381;DHT22;38310;52.796;6.942;2023-03-17T06:19:40;6.00;99.90
52381;DHT22;38310;52.796;6.942;2023-03-17T06:22:06;6.20;99.90
52381;DHT22;38310;52.796;6.942;2023-03-17T06:24:32;5.90;99.90
52381;DHT22;38310;52.796;6.942;2023-03-17T06:26:58;5.90;99.90
52381;DHT22;38310;52.796;6.942;2023-03-17T06:29:24;6.10;99.90
52381;DHT22;38310;52.796;6.942;2023-03-17T06:31:50;6.40;99.90
52381;DHT22;38310;52.796;6.942;2023-03-17T06:34:17;6.30;99.90
52381;DHT22;38310;52.796;6.942;2023-03-17T06:36:43;6.30;99.90
52381;DHT22;38310;52.796;6.942;2023-03-17T06:39:10;6.30;99.90
52381;DHT22;38310;52.796;6.942;2023-03-17T06:41:36;6.40;99.90
52381;DHT22;38310;52.796;6.942;2023-03-17T06:44:02;6.50;99.90
52381;DHT22;38310;52.796;6.942;2023-03-17T06:46:30;6.50;99.90
52381;DHT22;38310;52.796;6.942;2023-03-17T06:48:58;6.70;99.90
52381;DHT22;38310;52.796;6.942;2023-03-17T06:51:24;6.80;99.90
52381;DHT22;38310;52.796;6.942;2023-03-17T06:53:49;6.90;99.90
52381;DHT22;38310;52.796;6.942;2023-03-17T06:56:15;7.20;99.90
52381;DHT22;38310;52.796;6.942;2023-03-17T06:58:41;7.10;99.90
52381;DHT22;38310;52.796;6.942;2023-03-17T07:01:07;7.30;99.90
52381;DHT22;38310;52.796;6.942;2023-03-17T07:03:33;7.40;99.90
52381;DHT22;38310;52.796;6.942;2023-03-17T07:06:00;7.50;99.90
52381;DHT22;38310;52.796;6.942;2023-03-17T07:08:26;7.70;99.90
52381;DHT22;38310;52.796;6.942;2023-03-17T07:10:55;7.80;99.90
52381;DHT22;38310;52.796;6.942;2023-03-17T07:13:22;7.90;99.90
52381;DHT22;38310;52.796;6.942;2023-03-17T07:15:49;8.60;99.90
52381;DHT22;38310;52.796;6.942;2023-03-17T07:18:15;8.10;99.90
52381;DHT22;38310;52.796;6.942;2023-03-17T07:20:42;8.10;99.90
52381;DHT22;38310;52.796;6.942;2023-03-17T07:23:21;8.30;99.90
52381;DHT22;38310;52.796;6.942;2023-03-17T07:25:47;8.30;99.90
52381;DHT22;38310;52.796;6.942;2023-03-17T07:28:13;7.10;99.90
52381;DHT22;38310;52.796;6.942;2023-03-17T07:30:40;8.40;99.90
52381;DHT22;38310;52.796;6.942;2023-03-17T07:33:14;8.50;99.90
52381;DHT22;38310;52.796;6.942;2023-03-17T07:35:40;8.60;99.90
52381;DHT22;38310;52.796;6.942;2023-03-17T07:38:06;8.60;99.90
52381;DHT22;38310;52.796;6.942;2023-03-17T07:40:31;8.60;99.90
52381;DHT22;38310;52.796;6.942;2023-03-17T07:42:57;8.70;99.90
52381;DHT22;38310;52.796;6.942;2023-03-17T07:45:23;8.70;99.90
52381;DHT22;38310;52.796;6.942;2023-03-17T07:47:48;8.70;99.90
52381;DHT22;38310;52.796;6.942;2023-03-17T07:50:14;8.80;99.90
52381;DHT22;38310;52.796;6.942;2023-03-17T07:52:40;8.80;99.90
52381;DHT22;38310;52.796;6.942;2023-03-17T07:55:07;8.90;99.90
52381;DHT22;38310;52.796;6.942;2023-03-17T07:57:35;9.00;99.90
52381;DHT22;38310;52.796;6.942;2023-03-17T08:00:02;9.00;99.90
52381;DHT22;38310;52.796;6.942;2023-03-17T08:02:28;9.10;99.90
52381;DHT22;38310;52.796;6.942;2023-03-17T08:04:54;9.30;99.90
52381;DHT22;38310;52.796;6.942;2023-03-17T08:07:21;8.50;99.90
52381;DHT22;38310;52.796;6.942;2023-03-17T08:09:47;9.60;99.90
52381;DHT22;38310;52.796;6.942;2023-03-17T08:12:13;9.60;99.90
52381;DHT22;38310;52.796;6.942;2023-03-17T08:14:39;9.60;99.90
52381;DHT22;38310;52.796;6.942;2023-03-17T08:17:06;9.70;99.90
52381;DHT22;38310;52.796;6.942;2023-03-17T08:19:32;9.70;99.90
52381;DHT22;38310;52.796;6.942;2023-03-17T08:21:58;9.80;99.90
52381;DHT22;38310;52.796;6.942;2023-03-17T08:24:23;10.00;99.90
52381;DHT22;38310;52.796;6.942;2023-03-17T08:26:50;9.90;99.90
52381;DHT22;38310;52.796;6.942;2023-03-17T08:29:16;9.90;99.90
52381;DHT22;38310;52.796;6.942;2023-03-17T08:31:43;10.00;99.90
52381;DHT22;38310;52.796;6.942;2023-03-17T08:34:09;10.10;99.90
52381;DHT22;38310;52.796;6.942;2023-03-17T08:36:35;10.10;99.90
52381;DHT22;38310;52.796;6.942;2023-03-17T08:39:02;10.10;99.90
52381;DHT22;38310;52.796;6.942;2023-03-17T08:41:29;10.20;99.90
52381;DHT22;38310;52.796;6.942;2023-03-17T08:43:56;10.30;99.90
52381;DHT22;38310;52.796;6.942;2023-03-17T08:46:25;10.40;99.90
52381;DHT22;38310;52.796;6.942;2023-03-17T08:48:52;10.50;99.90
52381;DHT22;38310;52.796;6.942;2023-03-17T08:51:19;10.50;99.90
52381;DHT22;38310;52.796;6.942;2023-03-17T08:53:45;10.60;99.90
52381;DHT22;38310;52.796;6.942;2023-03-17T08:56:11;10.60;99.90
52381;DHT22;38310;52.796;6.942;2023-03-17T08:58:37;10.70;99.90
52381;DHT22;38310;52.796;6.942;2023-03-17T09:01:04;10.80;99.90
52381;DHT22;38310;52.796;6.942;2023-03-17T09:03:32;10.90;99.90
52381;DHT22;38310;52.796;6.942;2023-03-17T09:05:58;11.00;99.90
52381;DHT22;38310;52.796;6.942;2023-03-17T09:08:25;11.10;99.90
52381;DHT22;38310;52.796;6.942;2023-03-17T09:10:52;11.20;99.90
52381;DHT22;38310;52.796;6.942;2023-03-17T09:13:19;11.30;99.90
52381;DHT22;38310;52.796;6.942;2023-03-17T09:15:45;11.40;99.90
52381;DHT22;38310;52.796;6.942;2023-03-17T09:18:11;11.50;99.90
52381;DHT22;38310;52.796;6.942;2023-03-17T09:20:37;11.70;99.90
52381;DHT22;38310;52.796;6.942;2023-03-17T09:23:07;11.90;99.90
52381;DHT22;38310;52.796;6.942;2023-03-17T09:25:34;11.90;99.90
52381;DHT22;38310;52.796;6.942;2023-03-17T09:28:01;12.10;99.90
52381;DHT22;38310;52.796;6.942;2023-03-17T09:30:27;12.20;99.90
52381;DHT22;38310;52.796;6.942;2023-03-17T09:32:52;12.20;99.90
52381;DHT22;38310;52.796;6.942;2023-03-17T09:35:19;12.30;99.90
52381;DHT22;38310;52.796;6.942;2023-03-17T09:37:46;12.40;99.90
52381;DHT22;38310;52.796;6.942;2023-03-17T09:40:16;12.60;99.90
52381;DHT22;38310;52.796;6.942;2023-03-17T09:45:38;12.90;99.90
52381;DHT22;38310;52.796;6.942;2023-03-17T09:50:56;13.00;99.90
52381;DHT22;38310;52.796;6.942;2023-03-17T09:53:27;13.10;99.90
52381;DHT22;38310;52.796;6.942;2023-03-17T09:56:00;13.20;99.90
52381;DHT22;38310;52.796;6.942;2023-03-17T09:58:31;13.30;99.90
52381;DHT22;38310;52.796;6.942;2023-03-17T10:00:58;13.30;99.90
52381;DHT22;38310;52.796;6.942;2023-03-17T10:03:24;13.40;99.90
52381;DHT22;38310;52.796;6.942;2023-03-17T10:05:52;13.50;99.90
52381;DHT22;38310;52.796;6.942;2023-03-17T10:08:22;13.60;99.90
52381;DHT22;38310;52.796;6.942;2023-03-17T10:10:55;13.70;99.90
52381;DHT22;38310;52.796;6.942;2023-03-17T10:13:36;13.80;99.90
52381;DHT22;38310;52.796;6.942;2023-03-17T10:16:09;14.00;99.90
52381;DHT22;38310;52.796;6.942;2023-03-17T10:18:56;13.90;99.90
52381;DHT22;38310;52.796;6.942;2023-03-17T10:21:28;14.00;99.90
52381;DHT22;38310;52.796;6.942;2023-03-17T10:23:55;14.10;99.90
52381;DHT22;38310;52.796;6.942;2023-03-17T10:29:21;14.20;99.90
52381;DHT22;38310;52.796;6.942;2023-03-17T10:31:49;14.40;99.90
52381;DHT22;38310;52.796;6.942;2023-03-17T10:34:31;14.30;99.90
52381;DHT22;38310;52.796;6.942;2023-03-17T10:37:24;14.10;99.90
52381;DHT22;38310;52.796;6.942;2023-03-17T10:39:53;14.10;99.90
52381;DHT22;38310;52.796;6.942;2023-03-17T10:42:26;14.40;99.90
52381;DHT22;38310;52.796;6.942;2023-03-17T10:45:09;14.30;99.90
52381;DHT22;38310;52.796;6.942;2023-03-17T10:47:42;14.50;99.90
52381;DHT22;38310;52.796;6.942;2023-03-17T10:52:44;14.70;99.90
52381;DHT22;38310;52.796;6.942;2023-03-17T10:55:16;14.80;99.90
52381;DHT22;38310;52.796;6.942;2023-03-17T10:57:56;15.10;99.90
52381;DHT22;38310;52.796;6.942;2023-03-17T11:00:26;15.20;99.90
52381;DHT22;38310;52.796;6.942;2023-03-17T11:02:57;15.30;99.90
52381;DHT22;38310;52.796;6.942;2023-03-17T11:05:28;15.60;99.90
52381;DHT22;38310;52.796;6.942;2023-03-17T11:08:09;15.60;99.90
52381;DHT22;38310;52.796;6.942;2023-03-17T11:10:39;15.70;99.90
52381;DHT22;38310;52.796;6.942;2023-03-17T11:13:06;16.00;99.90
52381;DHT22;38310;52.796;6.942;2023-03-17T11:15:35;16.10;99.90
52381;DHT22;38310;52.796;6.942;2023-03-17T11:18:10;16.30;99.90
52381;DHT22;38310;52.796;6.942;2023-03-17T11:25:50;16.70;99.90
52381;DHT22;38310;52.796;6.942;2023-03-17T11:28:21;16.80;99.90
52381;DHT22;38310;52.796;6.942;2023-03-17T11:39:16;17.20;99.90
52381;DHT22;38310;52.796;6.942;2023-03-17T11:56:00;18.00;99.90
52381;DHT22;38310;52.796;6.942;2023-03-17T11:58:32;17.80;99.90
52381;DHT22;38310;52.796;6.942;2023-03-17T12:01:01;17.60;99.90
52381;DHT22;38310;52.796;6.942;2023-03-17T12:06:25;17.40;99.90
52381;DHT22;38310;52.796;6.942;2023-03-17T12:09:04;17.10;99.90
52381;DHT22;38310;52.796;6.942;2023-03-17T12:11:36;17.20;99.90
52381;DHT22;38310;52.796;6.942;2023-03-17T12:14:06;17.10;99.90
52381;DHT22;38310;52.796;6.942;2023-03-17T12:16:34;17.00;99.90
52381;DHT22;38310;52.796;6.942;2023-03-17T12:19:12;17.20;99.90
52381;DHT22;38310;52.796;6.942;2023-03-17T12:21:45;17.40;99.90
52381;DHT22;38310;52.796;6.942;2023-03-17T12:24:26;17.10;99.90
52381;DHT22;38310;52.796;6.942;2023-03-17T12:27:22;17.30;99.90
52381;DHT22;38310;52.796;6.942;2023-03-17T12:30:09;17.70;99.90
52381;DHT22;38310;52.796;6.942;2023-03-17T12:32:57;17.60;99.90
52381;DHT22;38310;52.796;6.942;2023-03-17T12:35:34;17.00;99.90
52381;DHT22;38310;52.796;6.942;2023-03-17T12:38:09;16.70;99.90
52381;DHT22;38310;52.796;6.942;2023-03-17T12:46:03;16.50;99.90
52381;DHT22;38310;52.796;6.942;2023-03-17T12:48:38;16.20;99.90
52381;DHT22;38310;52.796;6.942;2023-03-17T12:53:56;16.30;99.90
52381;DHT22;38310;52.796;6.942;2023-03-17T12:56:26;16.40;99.90
52381;DHT22;38310;52.796;6.942;2023-03-17T12:58:59;16.00;99.90
52381;DHT22;38310;52.796;6.942;2023-03-17T13:01:35;16.00;99.90
52381;DHT22;38310;52.796;6.942;2023-03-17T13:04:21;16.20;99.90
52381;DHT22;38310;52.796;6.942;2023-03-17T13:07:14;16.10;99.90
52381;DHT22;38310;52.796;6.942;2023-03-17T13:15:27;16.20;99.90
52381;DHT22;38310;52.796;6.942;2023-03-17T13:23:18;17.10;99.90
52381;DHT22;38310;52.796;6.942;2023-03-17T13:25:52;17.10;99.90
52381;DHT22;38310;52.796;6.942;2023-03-17T13:33:54;16.70;99.90
52381;DHT22;38310;52.796;6.942;2023-03-17T13:39:55;17.00;99.90
52381;DHT22;38310;52.796;6.942;2023-03-17T13:45:30;16.70;99.90
52381;DHT22;38310;52.796;6.942;2023-03-17T13:51:18;17.00;99.90
52381;DHT22;38310;52.796;6.942;2023-03-17T13:53:50;17.40;99.90
52381;DHT22;38310;52.796;6.942;2023-03-17T13:56:25;17.10;99.90
52381;DHT22;38310;52.796;6.942;2023-03-17T13:59:06;17.20;99.90
52381;DHT22;38310;52.796;6.942;2023-03-17T14:02:02;17.00;99.90
52381;DHT22;38310;52.796;6.942;2023-03-17T14:04:53;16.90;99.90
52381;DHT22;38310;52.796;6.942;2023-03-17T14:07:21;16.70;99.90
52381;DHT22;38310;52.796;6.942;2023-03-17T14:09:50;16.90;99.90
52381;DHT22;38310;52.796;6.942;2023-03-17T14:12:27;16.70;99.90
52381;DHT22;38310;52.796;6.942;2023-03-17T14:15:23;16.80;99.90
52381;DHT22;38310;52.796;6.942;2023-03-17T14:17:55;16.50;99.90
52381;DHT22;38310;52.796;6.942;2023-03-17T14:20:24;16.40;99.90
52381;DHT22;38310;52.796;6.942;2023-03-17T14:22:57;16.20;99.90
52381;DHT22;38310;52.796;6.942;2023-03-17T14:25:25;16.00;99.90
52381;DHT22;38310;52.796;6.942;2023-03-17T14:27:55;16.10;99.90
52381;DHT22;38310;52.796;6.942;2023-03-17T14:30:24;16.20;99.90
52381;DHT22;38310;52.796;6.942;2023-03-17T14:35:39;16.30;99.90
52381;DHT22;38310;52.796;6.942;2023-03-17T14:38:37;16.20;99.90
52381;DHT22;38310;52.796;6.942;2023-03-17T14:43:32;16.50;99.90
52381;DHT22;38310;52.796;6.942;2023-03-17T14:46:03;16.40;99.90
52381;DHT22;38310;52.796;6.942;2023-03-17T14:48:35;16.40;99.90
52381;DHT22;38310;52.796;6.942;2023-03-17T14:51:06;16.40;99.90
52381;DHT22;38310;52.796;6.942;2023-03-17T14:53:34;16.40;99.90
52381;DHT22;38310;52.796;6.942;2023-03-17T14:56:01;16.30;99.90
52381;DHT22;38310;52.796;6.942;2023-03-17T14:58:39;16.30;99.90
52381;DHT22;38310;52.796;6.942;2023-03-17T15:01:14;16.20;99.90
52381;DHT22;38310;52.796;6.942;2023-03-17T15:03:55;16.00;99.90
52381;DHT22;38310;52.796;6.942;2023-03-17T15:06:24;16.00;99.90
52381;DHT22;38310;52.796;6.942;2023-03-17T15:08:51;16.10;99.90
52381;DHT22;38310;52.796;6.942;2023-03-17T15:11:21;16.20;99.90
52381;DHT22;38310;52.796;6.942;2023-03-17T15:13:49;16.20;99.90
52381;DHT22;38310;52.796;6.942;2023-03-17T15:16:27;16.20;99.90
52381;DHT22;38310;52.796;6.942;2023-03-17T15:19:05;16.20;99.90
52381;DHT22;38310;52.796;6.942;2023-03-17T15:21:40;16.10;99.90
52381;DHT22;38310;52.796;6.942;2023-03-17T15:24:39;16.20;99.90
52381;DHT22;38310;52.796;6.942;2023-03-17T15:27:17;16.10;99.90
52381;DHT22;38310;52.796;6.942;2023-03-17T15:29:43;16.20;99.90
52381;DHT22;38310;52.796;6.942;2023-03-17T15:32:20;16.10;99.90
52381;DHT22;38310;52.796;6.942;2023-03-17T15:34:47;16.20;99.90
52381;DHT22;38310;52.796;6.942;2023-03-17T15:39:42;16.10;99.90
52381;DHT22;38310;52.796;6.942;2023-03-17T15:42:08;16.20;99.90
52381;DHT22;38310;52.796;6.942;2023-03-17T15:44:34;16.10;99.90
52381;DHT22;38310;52.796;6.942;2023-03-17T15:47:00;16.10;99.90
52381;DHT22;38310;52.796;6.942;2023-03-17T15:49:26;16.00;99.90
52381;DHT22;38310;52.796;6.942;2023-03-17T15:51:51;16.00;99.90
52381;DHT22;38310;52.796;6.942;2023-03-17T15:54:17;16.00;99.90
52381;DHT22;38310;52.796;6.942;2023-03-17T15:56:43;16.00;99.90
52381;DHT22;38310;52.796;6.942;2023-03-17T15:59:09;15.90;99.90
52381;DHT22;38310;52.796;6.942;2023-03-17T16:01:36;15.90;99.90
52381;DHT22;38310;52.796;6.942;2023-03-17T16:04:06;15.90;99.90
52381;DHT22;38310;52.796;6.942;2023-03-17T16:06:34;15.80;99.90
52381;DHT22;38310;52.796;6.942;2023-03-17T16:09:00;15.80;99.90
52381;DHT22;38310;52.796;6.942;2023-03-17T16:11:29;15.70;99.90
52381;DHT22;38310;52.796;6.942;2023-03-17T16:13:56;15.70;99.90
52381;DHT22;38310;52.796;6.942;2023-03-17T16:16:38;15.70;99.90
52381;DHT22;38310;52.796;6.942;2023-03-17T16:19:07;15.60;99.90
52381;DHT22;38310;52.796;6.942;2023-03-17T16:21:35;15.70;99.90
52381;DHT22;38310;52.796;6.942;2023-03-17T16:24:01;15.50;99.90
52381;DHT22;38310;52.796;6.942;2023-03-17T16:26:27;15.50;99.90
52381;DHT22;38310;52.796;6.942;2023-03-17T16:28:53;15.50;99.90
52381;DHT22;38310;52.796;6.942;2023-03-17T16:31:25;15.40;99.90
52381;DHT22;38310;52.796;6.942;2023-03-17T16:33:53;15.40;99.90
52381;DHT22;38310;52.796;6.942;2023-03-17T16:36:21;15.40;99.90
52381;DHT22;38310;52.796;6.942;2023-03-17T16:38:47;15.30;99.90
52381;DHT22;38310;52.796;6.942;2023-03-17T16:41:21;15.30;99.90
52381;DHT22;38310;52.796;6.942;2023-03-17T16:43:49;15.30;99.90
52381;DHT22;38310;52.796;6.942;2023-03-17T16:46:16;15.20;99.90
52381;DHT22;38310;52.796;6.942;2023-03-17T16:48:42;15.10;99.90
52381;DHT22;38310;52.796;6.942;2023-03-17T16:51:08;15.10;99.90
52381;DHT22;38310;52.796;6.942;2023-03-17T16:53:34;15.10;99.90
52381;DHT22;38310;52.796;6.942;2023-03-17T16:56:00;15.00;99.90
52381;DHT22;38310;52.796;6.942;2023-03-17T16:58:29;15.00;99.90
52381;DHT22;38310;52.796;6.942;2023-03-17T17:01:01;14.90;99.90
52381;DHT22;38310;52.796;6.942;2023-03-17T17:03:28;14.80;99.90
52381;DHT22;38310;52.796;6.942;2023-03-17T17:05:54;14.80;99.90
52381;DHT22;38310;52.796;6.942;2023-03-17T17:08:20;14.80;99.90
52381;DHT22;38310;52.796;6.942;2023-03-17T17:10:46;14.70;99.90
52381;DHT22;38310;52.796;6.942;2023-03-17T17:13:12;14.70;99.90
52381;DHT22;38310;52.796;6.942;2023-03-17T17:15:39;14.60;99.90
52381;DHT22;38310;52.796;6.942;2023-03-17T17:18:19;14.60;99.90
52381;DHT22;38310;52.796;6.942;2023-03-17T17:20:50;14.50;99.90